TimePDT,TemperatureF,Dew PointF,Humidity,Sea Level PressureIn,VisibilityMPH,Wind Direction,Wind SpeedMPH,Gust SpeedMPH,PrecipitationIn,Events,Conditions,WindDirDegrees,DateUTC
12:12 AM,64.4,59.0,83,29.94,5.0,South,4.6,-,N/A,Rain-Thunderstorm,Light Thunderstorms and Rain,170,2013-08-10 07:12:00
12:13 AM,64.4,59.0,83,29.91,10.0,Variable,5.8,-,N/A,Thunderstorm,Thunderstorm,0,2013-08-10 07:13:00
12:20 AM,64.4,59.0,83,29.91,3.0,Variable,5.8,-,N/A,Rain-Thunderstorm,Light Thunderstorms and Rain,0,2013-08-10 07:20:00
12:21 AM,64.4,59.0,83,29.90,9.0,West,5.8,-,N/A,Thunderstorm,Thunderstorm,260,2013-08-10 07:21:00
12:34 AM,64.4,60.8,88,29.91,5.0,West,5.8,-,N/A,Thunderstorm,Mostly Cloudy,270,2013-08-10 07:34:00
12:45 AM,62.6,60.8,94,29.93,10.0,Variable,2.3,-,N/A,Thunderstorm,Thunderstorm,0,2013-08-10 07:45:00
12:58 AM,63.3,60.8,91,29.95,10.0,North,6.9,-,0.07,Thunderstorm,Thunderstorm,350,2013-08-10 07:58:00
1:00 AM,62.6,60.8,94,29.94,10.0,NNW,8.1,-,N/A,,Mostly Cloudy,340,2013-08-10 08:00:00
1:58 AM,61.5,59.9,94,29.95,10.0,WNW,4.6,-,N/A,,Mostly Cloudy,300,2013-08-10 08:58:00
2:50 AM,59.0,59.0,100,29.93,10.0,West,5.8,-,N/A,,Partly Cloudy,280,2013-08-10 09:50:00
2:58 AM,59.4,58.1,96,29.94,10.0,WSW,4.6,-,N/A,,Partly Cloudy,250,2013-08-10 09:58:00
3:13 AM,59.0,57.2,94,29.94,10.0,SSW,4.6,-,N/A,,Mostly Cloudy,200,2013-08-10 10:13:00
3:38 AM,59.0,57.2,94,29.93,10.0,SSW,5.8,-,N/A,,Mostly Cloudy,210,2013-08-10 10:38:00
3:48 AM,59.0,57.2,94,29.92,10.0,South,4.6,-,N/A,,Mostly Cloudy,180,2013-08-10 10:48:00
3:58 AM,58.3,57.2,96,29.94,10.0,SE,4.6,-,N/A,,Mostly Cloudy,140,2013-08-10 10:58:00
4:03 AM,57.2,57.2,100,29.93,10.0,SE,4.6,-,N/A,,Scattered Clouds,140,2013-08-10 11:03:00
4:18 AM,57.2,57.2,100,29.94,10.0,SE,5.8,-,N/A,,Mostly Cloudy,140,2013-08-10 11:18:00
4:58 AM,58.6,58.1,98,29.95,10.0,South,4.6,-,N/A,,Overcast,170,2013-08-10 11:58:00
5:23 AM,59.0,59.0,100,29.95,10.0,Variable,1.2,-,N/A,,Overcast,0,2013-08-10 12:23:00
5:58 AM,58.8,58.3,98,29.96,10.0,WSW,4.6,-,N/A,,Overcast,240,2013-08-10 12:58:00
6:08 AM,59.0,59.0,100,29.96,3.0,Variable,6.9,-,N/A,,Overcast,0,2013-08-10 13:08:00
6:43 AM,59.0,57.2,94,29.96,5.0,South,9.2,-,N/A,,Overcast,190,2013-08-10 13:43:00
6:48 AM,57.2,57.2,100,29.96,7.0,SSW,5.8,-,N/A,,Overcast,200,2013-08-10 13:48:00
6:58 AM,57.7,56.1,94,29.97,10.0,SSW,8.1,-,N/A,,Overcast,210,2013-08-10 13:58:00
7:58 AM,58.6,56.3,92,30.00,10.0,SSE,3.5,-,N/A,,Overcast,160,2013-08-10 14:58:00
8:13 AM,59.0,57.2,94,30.00,10.0,SE,1.2,-,N/A,,Overcast,130,2013-08-10 15:13:00
8:43 AM,60.8,57.2,88,29.99,10.0,SW,5.8,-,N/A,,Overcast,220,2013-08-10 15:43:00
8:58 AM,61.3,57.4,87,30.01,10.0,Variable,2.3,-,N/A,,Overcast,0,2013-08-10 15:58:00
9:58 AM,61.9,58.3,88,30.02,10.0,SW,6.9,-,N/A,,Overcast,220,2013-08-10 16:58:00
10:03 AM,62.6,57.2,82,30.01,10.0,SSW,6.9,-,N/A,,Overcast,210,2013-08-10 17:03:00
10:53 AM,62.6,59.0,88,30.01,10.0,Variable,4.6,-,N/A,,Overcast,0,2013-08-10 17:53:00
10:58 AM,63.5,59.0,85,30.02,10.0,Variable,5.8,-,0.01,,Overcast,0,2013-08-10 17:58:00
11:18 AM,64.4,59.0,83,30.01,10.0,SSW,5.8,-,N/A,,Overcast,210,2013-08-10 18:18:00
11:58 AM,67.1,60.1,78,30.02,10.0,SSE,5.8,-,N/A,,Overcast,160,2013-08-10 18:58:00
12:23 PM,69.8,60.8,73,30.01,10.0,Variable,3.5,-,N/A,,Overcast,0,2013-08-10 19:23:00
12:58 PM,71.6,61.0,69,30.01,10.0,Variable,4.6,-,N/A,,Mostly Cloudy,0,2013-08-10 19:58:00
1:05 PM,73.4,60.8,65,29.99,10.0,SW,6.9,-,N/A,Rain,Light Rain,220,2013-08-10 20:05:00
1:09 PM,73.4,60.8,65,29.99,10.0,Variable,4.6,-,N/A,,Scattered Clouds,0,2013-08-10 20:09:00
1:19 PM,73.4,60.8,65,29.99,10.0,Variable,4.6,-,N/A,,Mostly Cloudy,0,2013-08-10 20:19:00
1:58 PM,73.6,61.2,65,30.00,10.0,WSW,8.1,-,0.00,,Mostly Cloudy,240,2013-08-10 20:58:00
2:13 PM,75.2,60.8,61,29.98,10.0,Variable,2.3,-,N/A,,Scattered Clouds,0,2013-08-10 21:13:00
2:58 PM,76.8,60.8,58,29.98,10.0,WSW,8.1,-,N/A,,Clear,250,2013-08-10 21:58:00
3:58 PM,77.2,60.6,56,29.97,10.0,West,11.5,-,N/A,,Clear,280,2013-08-10 22:58:00
4:58 PM,77.2,60.8,57,29.98,10.0,WSW,8.1,-,N/A,,Partly Cloudy,250,2013-08-10 23:58:00
5:58 PM,76.5,60.8,58,29.97,10.0,WNW,10.4,-,N/A,,Clear,300,2013-08-11 00:58:00
6:58 PM,75.6,56.5,51,29.97,10.0,West,10.4,-,N/A,,Partly Cloudy,270,2013-08-11 01:58:00
7:58 PM,72.0,53.2,52,29.99,10.0,West,10.4,-,N/A,,Partly Cloudy,280,2013-08-11 02:58:00
8:58 PM,65.8,55.0,68,30.02,10.0,West,9.2,-,N/A,,Overcast,270,2013-08-11 03:58:00
9:58 PM,61.0,52.5,74,30.04,10.0,West,9.2,-,N/A,,Scattered Clouds,260,2013-08-11 04:58:00
10:58 PM,59.7,52.9,78,30.03,10.0,WNW,6.9,-,N/A,,Clear,300,2013-08-11 05:58:00
11:58 PM,59.0,52.9,80,30.04,10.0,WSW,4.6,-,N/A,,Mostly Cloudy,240,2013-08-11 06:58:00